createdAt,value
2018-07-22T00:00:55.766Z,19.30
2018-07-22T00:03:31.577Z,19.30
2018-07-22T00:06:07.416Z,19.30
2018-07-22T00:08:43.050Z,19.30
2018-07-22T00:11:18.695Z,19.20
2018-07-22T00:13:54.538Z,19.20
2018-07-22T00:16:30.289Z,19.20
2018-07-22T00:19:06.576Z,19.20
2018-07-22T00:21:42.549Z,19.20
2018-07-22T00:24:18.629Z,19.20
2018-07-22T00:26:54.726Z,19.20
2018-07-22T00:29:30.846Z,19.20
2018-07-22T00:32:07.066Z,19.20
2018-07-22T00:34:43.389Z,19.20
2018-07-22T00:37:19.739Z,19.10
2018-07-22T00:39:55.998Z,19.10
2018-07-22T00:42:32.326Z,19.10
2018-07-22T00:45:12.076Z,19.10
2018-07-22T00:47:48.289Z,19.20
2018-07-22T00:52:59.936Z,19.20
2018-07-22T00:55:35.937Z,19.20
2018-07-22T00:58:12.090Z,19.20
2018-07-22T01:00:48.380Z,19.20
2018-07-22T01:03:24.734Z,19.20
2018-07-22T01:06:00.640Z,19.10
2018-07-22T01:08:36.749Z,19.10
2018-07-22T01:11:12.736Z,19.10
2018-07-22T01:13:48.966Z,19.10
2018-07-22T01:16:24.878Z,19.10
2018-07-22T01:19:01.179Z,19.10
2018-07-22T01:21:37.316Z,19.10
2018-07-22T01:24:13.369Z,19.10
2018-07-22T01:26:49.529Z,19.10
2018-07-22T01:29:25.695Z,19.10
2018-07-22T01:32:01.836Z,19.10
2018-07-22T01:34:37.997Z,19.10
2018-07-22T01:37:13.940Z,19.10
2018-07-22T01:39:50.125Z,19.10
2018-07-22T01:42:25.998Z,19.00
2018-07-22T01:45:02.065Z,19.10
2018-07-22T01:47:38.076Z,19.10
2018-07-22T01:50:14.176Z,19.10
2018-07-22T01:52:50.197Z,19.10
2018-07-22T01:55:26.275Z,19.10
2018-07-22T01:58:02.329Z,19.00
2018-07-22T02:00:38.526Z,19.10
2018-07-22T02:03:14.628Z,19.10
2018-07-22T02:05:50.726Z,19.10
2018-07-22T02:08:26.898Z,19.00
2018-07-22T02:11:02.959Z,19.00
2018-07-22T02:13:39.087Z,19.10
2018-07-22T02:16:15.279Z,19.10
2018-07-22T02:18:51.525Z,19.10
2018-07-22T02:21:27.715Z,19.10
2018-07-22T02:24:03.629Z,19.00
2018-07-22T02:26:39.674Z,19.10
2018-07-22T02:29:15.639Z,19.10
2018-07-22T02:31:51.729Z,19.10
2018-07-22T02:34:27.959Z,19.00
2018-07-22T02:37:04.348Z,19.00
2018-07-22T02:39:40.276Z,18.90
2018-07-22T02:42:16.328Z,19.00
2018-07-22T02:44:52.330Z,18.90
2018-07-22T02:47:28.479Z,19.00
2018-07-22T02:50:05.285Z,18.90
2018-07-22T02:52:41.476Z,18.90
2018-07-22T02:55:17.578Z,18.90
2018-07-22T02:57:53.717Z,18.80
2018-07-22T03:00:29.786Z,18.80
2018-07-22T03:03:05.939Z,18.80
2018-07-22T03:05:42.280Z,18.70
2018-07-22T03:08:18.585Z,18.60
2018-07-22T03:10:54.648Z,18.70
2018-07-22T03:13:30.684Z,18.60
2018-07-22T03:16:06.911Z,18.70
2018-07-22T03:18:43.107Z,18.70
2018-07-22T03:21:19.279Z,18.70
2018-07-22T03:23:55.191Z,18.70
2018-07-22T03:26:31.166Z,18.70
2018-07-22T03:29:07.010Z,18.60
2018-07-22T03:31:43.099Z,18.50
2018-07-22T03:34:19.157Z,18.50
2018-07-22T03:36:55.208Z,18.50
2018-07-22T03:39:31.053Z,18.50
2018-07-22T03:42:07.238Z,18.50
2018-07-22T03:47:19.668Z,18.50
2018-07-22T03:49:58.485Z,18.50
2018-07-22T03:52:35.399Z,18.40
2018-07-22T03:55:11.616Z,18.40
2018-07-22T03:57:47.659Z,18.40
2018-07-22T04:00:23.748Z,18.40
2018-07-22T04:03:00.018Z,18.30
2018-07-22T04:05:36.287Z,18.40
2018-07-22T04:08:12.637Z,18.40
2018-07-22T04:10:48.739Z,18.40
2018-07-22T04:13:24.846Z,18.40
2018-07-22T04:16:01.019Z,18.40
2018-07-22T04:18:54.062Z,18.40
2018-07-22T04:21:30.239Z,18.40
2018-07-22T04:24:06.360Z,18.50
2018-07-22T04:26:42.709Z,18.50
2018-07-22T04:29:20.008Z,18.50
2018-07-22T04:31:56.088Z,18.50
2018-07-22T04:34:32.029Z,18.50
2018-07-22T04:37:08.430Z,18.50
2018-07-22T04:39:44.517Z,18.60
2018-07-22T04:42:20.777Z,18.70
2018-07-22T04:44:56.999Z,18.70
2018-07-22T04:47:33.348Z,18.70
2018-07-22T04:50:09.672Z,18.80
2018-07-22T04:52:45.790Z,18.90
2018-07-22T04:55:21.814Z,18.90
2018-07-22T04:57:57.897Z,18.90
2018-07-22T05:00:34.147Z,18.90
2018-07-22T05:03:10.441Z,18.90
2018-07-22T05:05:46.547Z,19.00
2018-07-22T05:08:22.555Z,19.00
2018-07-22T05:10:59.199Z,19.10
2018-07-22T05:13:35.497Z,19.20
2018-07-22T05:16:11.806Z,19.30
2018-07-22T05:18:48.108Z,19.40
2018-07-22T05:21:24.072Z,19.40
2018-07-22T05:24:00.229Z,19.60
2018-07-22T05:26:36.379Z,19.70
2018-07-22T05:29:12.426Z,19.70
2018-07-22T05:31:48.659Z,19.80
2018-07-22T05:34:24.959Z,19.90
2018-07-22T05:37:00.874Z,20.00
2018-07-22T05:39:37.168Z,20.00
2018-07-22T05:42:13.334Z,20.40
2018-07-22T05:44:49.488Z,20.90
2018-07-22T05:47:25.466Z,21.40
2018-07-22T05:50:01.388Z,21.80
2018-07-22T05:52:37.601Z,21.90
2018-07-22T05:55:13.946Z,22.10
2018-07-22T05:57:50.016Z,22.30
2018-07-22T06:00:26.269Z,22.10
2018-07-22T06:03:03.210Z,21.90
2018-07-22T06:05:39.289Z,21.70
2018-07-22T06:08:15.656Z,22.00
2018-07-22T06:10:51.585Z,22.50
2018-07-22T06:13:27.888Z,23.00
2018-07-22T06:18:39.778Z,23.40
2018-07-22T06:21:15.937Z,23.50
2018-07-22T06:23:51.910Z,23.60
2018-07-22T06:26:27.827Z,23.50
2018-07-22T06:29:04.126Z,23.60
2018-07-22T06:31:40.171Z,23.80
2018-07-22T06:34:16.443Z,24.20
2018-07-22T06:36:52.808Z,24.60
2018-07-22T06:39:28.907Z,25.10
2018-07-22T06:42:05.055Z,25.10
2018-07-22T06:44:41.318Z,24.60
2018-07-22T06:47:17.549Z,24.30
2018-07-22T06:49:53.767Z,24.00
2018-07-22T06:52:29.976Z,24.00
2018-07-22T06:55:06.123Z,24.30
2018-07-22T06:57:42.388Z,24.30
2018-07-22T07:01:41.074Z,24.00
2018-07-22T07:04:17.045Z,24.40
2018-07-22T07:06:53.440Z,24.50
2018-07-22T07:09:29.546Z,24.70
2018-07-22T07:12:05.547Z,24.70
2018-07-22T07:14:42.075Z,24.40
2018-07-22T07:17:18.368Z,24.30
2018-07-22T07:19:54.615Z,24.40
2018-07-22T07:22:30.699Z,24.50
2018-07-22T07:25:07.105Z,24.50
2018-07-22T07:30:20.258Z,24.30
2018-07-22T07:32:56.470Z,24.40
2018-07-22T07:35:33.190Z,24.50
2018-07-22T07:38:10.275Z,24.40
2018-07-22T07:40:46.456Z,24.70
2018-07-22T07:43:22.716Z,24.60
2018-07-22T07:45:58.986Z,24.80
2018-07-22T07:48:35.168Z,24.70
2018-07-22T07:51:11.215Z,24.70
2018-07-22T07:53:47.289Z,24.70
2018-07-22T07:56:23.535Z,24.60
2018-07-22T07:58:59.611Z,24.90
2018-07-22T08:01:35.709Z,24.90
2018-07-22T08:04:11.916Z,25.10
2018-07-22T08:06:48.208Z,25.30
2018-07-22T08:09:24.239Z,25.20
2018-07-22T08:12:00.506Z,25.20
2018-07-22T08:14:36.634Z,25.20
2018-07-22T08:17:13.028Z,25.20
2018-07-22T08:19:49.065Z,25.30
2018-07-22T08:22:25.197Z,25.20
2018-07-22T08:25:01.309Z,25.20
2018-07-22T08:27:37.596Z,25.10
2018-07-22T08:30:13.817Z,25.20
2018-07-22T08:32:50.118Z,25.20
2018-07-22T08:35:26.156Z,25.30
2018-07-22T08:38:02.176Z,25.30
2018-07-22T08:40:38.091Z,25.50
2018-07-22T08:43:14.220Z,25.50
2018-07-22T08:45:50.085Z,25.60
2018-07-22T08:48:26.149Z,25.60
2018-07-22T08:51:02.160Z,25.60
2018-07-22T08:53:38.336Z,25.40
2018-07-22T08:56:14.289Z,25.60
2018-07-22T08:58:50.591Z,25.60
2018-07-22T09:01:26.945Z,25.60
2018-07-22T09:04:03.179Z,25.40
2018-07-22T09:06:39.479Z,25.60
2018-07-22T09:09:15.519Z,25.60
2018-07-22T09:11:51.746Z,25.90
2018-07-22T09:14:27.896Z,26.10
2018-07-22T09:17:03.966Z,26.20
2018-07-22T09:19:40.059Z,26.30
2018-07-22T09:22:16.116Z,26.20
2018-07-22T09:24:52.269Z,26.80
2018-07-22T09:27:28.316Z,27.10
2018-07-22T09:30:04.689Z,26.60
2018-07-22T09:32:40.876Z,27.00
2018-07-22T09:35:16.989Z,27.00
2018-07-22T09:37:52.973Z,26.90
2018-07-22T09:43:04.568Z,27.10
2018-07-22T09:45:40.749Z,27.20
2018-07-22T09:48:16.992Z,27.40
2018-07-22T09:50:53.278Z,27.50
2018-07-22T09:53:29.420Z,27.20
2018-07-22T09:56:05.678Z,27.10
2018-07-22T10:01:17.288Z,26.80
2018-07-22T10:03:53.325Z,27.20
2018-07-22T10:06:29.507Z,27.30
2018-07-22T10:09:08.258Z,26.90
2018-07-22T10:11:44.498Z,27.20
2018-07-22T10:14:20.457Z,27.20
2018-07-22T10:16:56.628Z,27.50
2018-07-22T10:19:32.670Z,27.30
2018-07-22T10:22:08.768Z,27.20
2018-07-22T10:24:44.985Z,26.90
2018-07-22T10:29:56.547Z,27.00
2018-07-22T10:32:32.636Z,27.00
2018-07-22T10:35:08.618Z,26.70
2018-07-22T10:37:44.758Z,27.10
2018-07-22T10:40:21.010Z,27.30
2018-07-22T10:42:57.118Z,27.40
2018-07-22T10:45:33.255Z,27.60
2018-07-22T10:48:09.417Z,28.00
2018-07-22T10:50:45.535Z,28.50
2018-07-22T10:53:21.538Z,28.90
2018-07-22T10:55:57.700Z,30.00
2018-07-22T10:58:33.836Z,28.90
2018-07-22T11:01:10.035Z,28.00
2018-07-22T11:03:46.391Z,27.40
2018-07-22T11:06:22.330Z,27.90
2018-07-22T11:11:34.105Z,27.90
2018-07-22T11:14:10.329Z,27.90
2018-07-22T11:16:46.325Z,28.30
2018-07-22T11:19:22.428Z,28.60
2018-07-22T11:21:58.570Z,28.60
2018-07-22T11:24:34.755Z,28.90
2018-07-22T11:27:10.827Z,29.40
2018-07-22T11:29:46.905Z,29.00
2018-07-22T11:32:22.921Z,28.90
2018-07-22T11:34:58.978Z,28.80
2018-07-22T11:37:35.029Z,28.80
2018-07-22T11:40:11.300Z,29.10
2018-07-22T11:42:47.357Z,29.00
2018-07-22T11:45:23.637Z,29.40
2018-07-22T11:47:59.708Z,29.50
2018-07-22T11:50:35.905Z,29.40
2018-07-22T11:55:47.407Z,29.60
2018-07-22T11:58:23.574Z,29.50
2018-07-22T12:00:59.687Z,29.80
2018-07-22T12:03:35.705Z,30.00
2018-07-22T12:06:11.770Z,29.70
2018-07-22T12:08:47.799Z,29.50
2018-07-22T12:11:23.675Z,29.30
2018-07-22T12:13:59.815Z,29.70
2018-07-22T12:16:35.714Z,30.40
2018-07-22T12:19:11.947Z,30.60
2018-07-22T12:21:47.998Z,30.00
2018-07-22T12:24:24.075Z,30.30
2018-07-22T12:27:00.253Z,29.90
2018-07-22T12:29:36.606Z,29.50
2018-07-22T12:32:12.657Z,28.90
2018-07-22T12:34:48.974Z,28.50
2018-07-22T12:37:25.119Z,27.90
2018-07-22T12:40:01.449Z,27.90
2018-07-22T12:42:37.594Z,28.30
2018-07-22T12:45:13.424Z,28.70
2018-07-22T12:47:49.828Z,28.30
2018-07-22T12:50:26.034Z,28.40
2018-07-22T12:53:01.918Z,27.90
2018-07-22T12:55:38.486Z,27.90
2018-07-22T13:00:50.439Z,29.10
2018-07-22T13:03:26.454Z,30.40
2018-07-22T13:06:02.663Z,31.00
2018-07-22T13:08:38.778Z,30.60
2018-07-22T13:11:15.054Z,30.80
2018-07-22T13:13:50.967Z,31.40
2018-07-22T13:16:26.945Z,31.90
2018-07-22T13:19:02.937Z,31.70
2018-07-22T13:21:39.083Z,32.00
2018-07-22T13:24:15.104Z,31.90
2018-07-22T13:26:51.076Z,32.20
2018-07-22T13:29:27.216Z,31.40
2018-07-22T13:32:03.412Z,31.20
2018-07-22T13:34:39.745Z,31.50
2018-07-22T13:37:16.027Z,32.00
2018-07-22T13:39:52.084Z,31.80
2018-07-22T13:42:28.141Z,32.10
2018-07-22T13:45:04.313Z,31.70
2018-07-22T13:47:40.587Z,31.40
2018-07-22T13:50:16.725Z,30.40
2018-07-22T13:52:52.787Z,30.00
2018-07-22T13:55:28.979Z,29.70
2018-07-22T13:58:04.908Z,29.40
2018-07-22T14:00:41.068Z,28.70
2018-07-22T14:03:17.272Z,28.40
2018-07-22T14:05:53.376Z,28.60
2018-07-22T14:08:29.448Z,28.30
2018-07-22T14:11:05.532Z,28.10
2018-07-22T14:13:41.748Z,28.00
2018-07-22T14:16:17.947Z,27.50
2018-07-22T14:18:54.096Z,27.30
2018-07-22T14:21:30.469Z,27.30
2018-07-22T14:24:06.595Z,27.30
2018-07-22T14:26:42.707Z,27.40
2018-07-22T14:29:18.714Z,27.10
2018-07-22T14:31:54.835Z,27.00
2018-07-22T14:34:30.846Z,26.70
2018-07-22T14:37:06.984Z,26.60
2018-07-22T14:39:43.017Z,26.70
2018-07-22T14:42:19.126Z,26.60
2018-07-22T14:44:55.113Z,26.50
2018-07-22T14:47:31.198Z,26.40
2018-07-22T14:50:07.420Z,26.40
2018-07-22T14:52:43.424Z,26.20
2018-07-22T14:55:19.347Z,26.20
2018-07-22T14:57:55.657Z,26.10
2018-07-22T15:00:32.918Z,26.00
2018-07-22T15:03:09.026Z,26.00
2018-07-22T15:05:45.220Z,26.20
2018-07-22T15:08:21.143Z,26.10
2018-07-22T15:10:57.318Z,26.00
2018-07-22T15:13:33.288Z,25.70
2018-07-22T15:16:09.470Z,25.90
2018-07-22T15:18:45.471Z,25.80
2018-07-22T15:21:21.573Z,25.60
2018-07-22T15:23:57.784Z,25.70
2018-07-22T15:26:33.968Z,25.60
2018-07-22T15:29:10.169Z,25.50
2018-07-22T15:31:46.298Z,25.50
2018-07-22T15:34:22.438Z,25.50
2018-07-22T15:36:58.615Z,25.40
2018-07-22T15:39:34.754Z,25.40
2018-07-22T15:42:10.637Z,25.40
2018-07-22T15:44:46.697Z,25.40
2018-07-22T15:47:22.777Z,25.20
2018-07-22T15:49:58.895Z,25.00
2018-07-22T15:52:35.056Z,25.00
2018-07-22T15:55:11.213Z,24.90
2018-07-22T15:57:47.255Z,24.90
2018-07-22T16:00:23.139Z,24.90
2018-07-22T16:02:59.485Z,24.80
2018-07-22T16:05:35.477Z,24.50
2018-07-22T16:08:11.555Z,24.50
2018-07-22T16:10:47.671Z,24.40
2018-07-22T16:13:23.925Z,24.40
2018-07-22T16:15:59.966Z,24.40
2018-07-22T16:18:35.904Z,24.40
2018-07-22T16:21:11.857Z,24.20
2018-07-22T16:23:47.715Z,24.20
2018-07-22T16:26:24.222Z,24.30
2018-07-22T16:29:00.221Z,24.20
2018-07-22T16:31:36.593Z,24.10
2018-07-22T16:34:12.802Z,24.10
2018-07-22T16:36:48.956Z,24.20
2018-07-22T16:39:25.144Z,23.90
2018-07-22T16:42:01.396Z,23.90
2018-07-22T16:44:38.345Z,24.00
2018-07-22T16:47:15.415Z,24.10
2018-07-22T16:49:51.634Z,23.90
2018-07-22T16:52:27.687Z,24.00
2018-07-22T16:55:04.031Z,23.90
2018-07-22T16:57:40.264Z,23.70
2018-07-22T17:00:16.197Z,23.60
2018-07-22T17:02:52.340Z,23.70
2018-07-22T17:05:28.486Z,23.60
2018-07-22T17:08:04.942Z,23.50
2018-07-22T17:10:41.095Z,23.50
2018-07-22T17:13:17.396Z,23.50
2018-07-22T17:15:53.864Z,23.40
2018-07-22T17:18:30.040Z,23.40
2018-07-22T17:21:06.677Z,23.30
2018-07-22T17:23:43.027Z,23.30
2018-07-22T17:26:19.391Z,23.10
2018-07-22T17:28:55.442Z,23.10
2018-07-22T17:31:31.732Z,22.80
2018-07-22T17:34:08.183Z,22.70
2018-07-22T17:36:44.576Z,22.60
2018-07-22T17:39:20.731Z,22.60
2018-07-22T17:41:56.754Z,22.60
2018-07-22T17:44:33.087Z,22.60
2018-07-22T17:47:09.408Z,22.30
2018-07-22T17:49:45.847Z,22.20
2018-07-22T17:52:21.672Z,22.20
2018-07-22T17:54:57.987Z,22.10
2018-07-22T17:57:34.257Z,22.10
2018-07-22T18:00:10.628Z,21.80
2018-07-22T18:02:50.468Z,21.80
2018-07-22T18:05:26.359Z,21.70
2018-07-22T18:08:02.570Z,21.80
2018-07-22T18:10:38.825Z,21.70
2018-07-22T18:13:14.840Z,21.70
2018-07-22T18:15:51.055Z,21.60
2018-07-22T18:18:27.228Z,21.60
2018-07-22T18:21:03.612Z,21.50
2018-07-22T18:23:39.648Z,21.50
2018-07-22T18:26:16.018Z,21.40
2018-07-22T18:28:52.318Z,21.30
2018-07-22T18:31:28.295Z,21.20
2018-07-22T18:34:04.497Z,21.10
2018-07-22T18:36:40.754Z,21.10
2018-07-22T18:39:16.824Z,21.00
2018-07-22T18:41:52.979Z,21.10
2018-07-22T18:44:29.152Z,21.10
2018-07-22T18:47:05.397Z,21.20
2018-07-22T18:49:41.688Z,21.20
2018-07-22T18:52:18.059Z,21.30
2018-07-22T18:54:54.338Z,21.10
2018-07-22T18:57:30.449Z,21.00
2018-07-22T19:00:06.736Z,20.90
2018-07-22T19:02:42.909Z,20.80
2018-07-22T19:05:19.393Z,20.60
2018-07-22T19:07:55.741Z,20.50
2018-07-22T19:10:31.966Z,20.50
2018-07-22T19:13:08.210Z,20.40
2018-07-22T19:15:44.495Z,20.30
2018-07-22T19:18:20.656Z,20.20
2018-07-22T19:20:57.328Z,20.10
2018-07-22T19:23:33.588Z,20.00
2018-07-22T19:26:09.973Z,20.00
2018-07-22T19:28:45.988Z,19.90
2018-07-22T19:31:22.420Z,19.90
2018-07-22T19:33:58.553Z,19.80
2018-07-22T19:36:34.996Z,19.80
2018-07-22T19:39:11.382Z,19.70
2018-07-22T19:41:47.659Z,19.60
2018-07-22T19:44:23.899Z,19.50
2018-07-22T19:46:59.949Z,19.40
2018-07-22T19:49:36.227Z,19.40
2018-07-22T19:52:12.309Z,19.20
2018-07-22T19:54:48.340Z,19.30
2018-07-22T19:57:24.441Z,19.20
2018-07-22T20:00:00.636Z,19.10
2018-07-22T20:02:37.002Z,19.10
2018-07-22T20:07:48.577Z,19.00
2018-07-22T20:10:25.286Z,19.00
2018-07-22T20:13:01.738Z,19.00
2018-07-22T20:15:37.758Z,18.80
2018-07-22T20:18:13.650Z,18.80
2018-07-22T20:20:49.745Z,18.80
2018-07-22T20:23:26.080Z,18.70
2018-07-22T20:26:02.414Z,18.70
2018-07-22T20:28:38.596Z,18.60
2018-07-22T20:31:14.609Z,18.50
2018-07-22T20:33:50.735Z,18.50
2018-07-22T20:36:26.757Z,18.50
2018-07-22T20:39:02.986Z,18.50
2018-07-22T20:41:39.949Z,18.50
2018-07-22T20:44:15.782Z,18.40
2018-07-22T20:46:51.893Z,18.30
2018-07-22T20:49:27.999Z,18.30
2018-07-22T20:52:04.049Z,18.30
2018-07-22T20:54:39.976Z,18.20
2018-07-22T20:57:15.937Z,18.20
2018-07-22T20:59:51.997Z,18.20
2018-07-22T21:02:28.134Z,18.10
2018-07-22T21:05:04.062Z,18.10
2018-07-22T21:07:39.949Z,18.00
2018-07-22T21:10:16.158Z,18.00
2018-07-22T21:13:03.785Z,18.00
2018-07-22T21:15:40.158Z,18.00
2018-07-22T21:18:16.696Z,17.90
2018-07-22T21:20:52.703Z,17.90
2018-07-22T21:23:28.937Z,17.90
2018-07-22T21:26:05.131Z,17.80
2018-07-22T21:28:41.119Z,17.80
2018-07-22T21:31:17.035Z,17.80
2018-07-22T21:33:53.085Z,17.70
2018-07-22T21:36:29.129Z,17.70
2018-07-22T21:39:08.117Z,17.70
2018-07-22T21:41:44.190Z,17.60
2018-07-22T21:44:20.409Z,17.60
2018-07-22T21:46:56.541Z,17.60
2018-07-22T21:52:08.588Z,17.50
2018-07-22T21:54:44.798Z,17.50
2018-07-22T21:57:21.193Z,17.40
2018-07-22T22:02:33.740Z,17.40
2018-07-22T22:05:09.945Z,17.40
2018-07-22T22:07:46.009Z,17.30
2018-07-22T22:10:22.509Z,17.30
2018-07-22T22:12:58.680Z,17.30
2018-07-22T22:15:34.794Z,17.20
2018-07-22T22:18:11.167Z,17.10
2018-07-22T22:20:47.137Z,17.10
2018-07-22T22:23:23.473Z,17.00
2018-07-22T22:25:59.583Z,17.00
2018-07-22T22:28:35.649Z,17.00
2018-07-22T22:31:11.742Z,17.00
2018-07-22T22:33:47.936Z,16.90
2018-07-22T22:36:24.210Z,16.90
2018-07-22T22:39:00.660Z,16.90
2018-07-22T22:41:37.080Z,16.80
2018-07-22T22:44:13.231Z,16.80
2018-07-22T22:46:49.526Z,16.80
2018-07-22T22:49:25.538Z,16.70
2018-07-22T22:52:01.800Z,16.70
2018-07-22T22:54:37.826Z,16.60
2018-07-22T22:57:14.094Z,16.60
2018-07-22T22:59:50.246Z,16.60
2018-07-22T23:02:30.509Z,16.50
2018-07-22T23:05:08.101Z,16.50
2018-07-22T23:07:44.150Z,16.40
2018-07-22T23:12:55.888Z,16.40
2018-07-22T23:15:32.006Z,16.40
2018-07-22T23:18:08.152Z,16.50
2018-07-22T23:20:44.256Z,16.40
2018-07-22T23:23:20.627Z,16.30
2018-07-22T23:25:57.209Z,16.40
2018-07-22T23:31:08.709Z,16.30
2018-07-22T23:33:44.697Z,16.30
2018-07-22T23:36:21.149Z,16.30
2018-07-22T23:38:57.359Z,16.30
2018-07-22T23:41:33.568Z,16.30
2018-07-22T23:44:09.429Z,16.30
2018-07-22T23:46:45.391Z,16.30
2018-07-22T23:49:21.667Z,16.20
2018-07-22T23:51:57.865Z,16.20
2018-07-22T23:54:34.166Z,16.20
2018-07-22T23:57:10.147Z,16.30
2018-07-22T23:59:46.306Z,16.10
